sensor_id;sensor_type;location;lat;lon;timestamp;P1;durP1;ratioP1;P2;durP2;ratioP2
20348;SDS011;10332;50.208;18.988;2023-02-13T00:00:53;130.40;;;58.55;;
20348;SDS011;10332;50.208;18.988;2023-02-13T00:03:22;127.55;;;57.50;;
20348;SDS011;10332;50.208;18.988;2023-02-13T00:05:50;127.97;;;58.97;;
20348;SDS011;10332;50.208;18.988;2023-02-13T00:08:17;133.77;;;59.65;;
20348;SDS011;10332;50.208;18.988;2023-02-13T00:10:45;138.32;;;61.10;;
20348;SDS011;10332;50.208;18.988;2023-02-13T00:13:14;134.75;;;58.45;;
20348;SDS011;10332;50.208;18.988;2023-02-13T00:15:41;139.95;;;60.67;;
20348;SDS011;10332;50.208;18.988;2023-02-13T00:18:09;133.50;;;59.05;;
20348;SDS011;10332;50.208;18.988;2023-02-13T00:20:37;132.23;;;61.15;;
20348;SDS011;10332;50.208;18.988;2023-02-13T00:23:04;129.25;;;60.08;;
20348;SDS011;10332;50.208;18.988;2023-02-13T00:25:32;136.98;;;59.97;;
20348;SDS011;10332;50.208;18.988;2023-02-13T00:27:59;132.63;;;59.80;;
20348;SDS011;10332;50.208;18.988;2023-02-13T00:30:27;122.97;;;56.75;;
20348;SDS011;10332;50.208;18.988;2023-02-13T00:32:55;121.18;;;54.72;;
20348;SDS011;10332;50.208;18.988;2023-02-13T00:35:22;132.98;;;60.13;;
20348;SDS011;10332;50.208;18.988;2023-02-13T00:37:49;128.10;;;57.63;;
20348;SDS011;10332;50.208;18.988;2023-02-13T00:40:17;125.63;;;57.92;;
20348;SDS011;10332;50.208;18.988;2023-02-13T00:42:44;122.05;;;57.20;;
20348;SDS011;10332;50.208;18.988;2023-02-13T00:45:12;118.72;;;54.83;;
20348;SDS011;10332;50.208;18.988;2023-02-13T00:47:39;118.25;;;54.28;;
20348;SDS011;10332;50.208;18.988;2023-02-13T00:50:07;118.70;;;53.38;;
20348;SDS011;10332;50.208;18.988;2023-02-13T00:52:35;119.88;;;56.05;;
20348;SDS011;10332;50.208;18.988;2023-02-13T00:55:02;118.55;;;53.95;;
20348;SDS011;10332;50.208;18.988;2023-02-13T00:57:30;116.22;;;53.83;;
20348;SDS011;10332;50.208;18.988;2023-02-13T00:59:57;110.32;;;52.22;;
20348;SDS011;10332;50.208;18.988;2023-02-13T01:02:25;116.50;;;54.85;;
20348;SDS011;10332;50.208;18.988;2023-02-13T01:04:52;106.45;;;50.33;;
20348;SDS011;10332;50.208;18.988;2023-02-13T01:07:20;103.80;;;50.25;;
20348;SDS011;10332;50.208;18.988;2023-02-13T01:09:47;111.90;;;52.28;;
20348;SDS011;10332;50.208;18.988;2023-02-13T01:12:15;115.60;;;53.38;;
20348;SDS011;10332;50.208;18.988;2023-02-13T01:14:42;104.78;;;49.05;;
20348;SDS011;10332;50.208;18.988;2023-02-13T01:17:09;108.75;;;50.70;;
20348;SDS011;10332;50.208;18.988;2023-02-13T01:19:39;99.93;;;48.30;;
20348;SDS011;10332;50.208;18.988;2023-02-13T01:22:07;110.43;;;50.83;;
20348;SDS011;10332;50.208;18.988;2023-02-13T01:24:34;110.90;;;50.80;;
20348;SDS011;10332;50.208;18.988;2023-02-13T01:27:02;111.20;;;49.40;;
20348;SDS011;10332;50.208;18.988;2023-02-13T01:29:29;103.65;;;49.22;;
20348;SDS011;10332;50.208;18.988;2023-02-13T01:31:57;107.63;;;48.97;;
20348;SDS011;10332;50.208;18.988;2023-02-13T01:34:24;107.25;;;48.92;;
20348;SDS011;10332;50.208;18.988;2023-02-13T01:36:52;103.93;;;48.30;;
20348;SDS011;10332;50.208;18.988;2023-02-13T01:39:19;109.63;;;49.83;;
20348;SDS011;10332;50.208;18.988;2023-02-13T01:41:47;103.13;;;47.60;;
20348;SDS011;10332;50.208;18.988;2023-02-13T01:53:09;106.63;;;47.53;;
20348;SDS011;10332;50.208;18.988;2023-02-13T01:58:52;106.00;;;49.15;;
20348;SDS011;10332;50.208;18.988;2023-02-13T02:01:24;102.15;;;45.85;;
20348;SDS011;10332;50.208;18.988;2023-02-13T02:03:56;96.68;;;45.88;;
20348;SDS011;10332;50.208;18.988;2023-02-13T02:06:28;107.88;;;49.45;;
20348;SDS011;10332;50.208;18.988;2023-02-13T02:09:03;105.68;;;47.25;;
20348;SDS011;10332;50.208;18.988;2023-02-13T02:14:39;94.63;;;45.40;;
20348;SDS011;10332;50.208;18.988;2023-02-13T02:17:08;91.35;;;42.13;;
20348;SDS011;10332;50.208;18.988;2023-02-13T02:19:41;97.90;;;45.88;;
20348;SDS011;10332;50.208;18.988;2023-02-13T02:22:29;101.00;;;47.78;;
20348;SDS011;10332;50.208;18.988;2023-02-13T02:49:06;90.50;;;41.10;;
20348;SDS011;10332;50.208;18.988;2023-02-13T02:52:07;99.13;;;42.10;;
20348;SDS011;10332;50.208;18.988;2023-02-13T02:54:50;98.55;;;42.35;;
20348;SDS011;10332;50.208;18.988;2023-02-13T02:57:33;95.28;;;40.75;;
20348;SDS011;10332;50.208;18.988;2023-02-13T03:00:28;89.63;;;39.40;;
20348;SDS011;10332;50.208;18.988;2023-02-13T03:03:21;90.65;;;41.88;;
20348;SDS011;10332;50.208;18.988;2023-02-13T03:06:14;100.30;;;40.25;;
20348;SDS011;10332;50.208;18.988;2023-02-13T03:08:56;89.70;;;38.72;;
20348;SDS011;10332;50.208;18.988;2023-02-13T03:11:48;85.63;;;37.63;;
20348;SDS011;10332;50.208;18.988;2023-02-13T03:14:39;82.15;;;36.50;;
20348;SDS011;10332;50.208;18.988;2023-02-13T03:17:11;81.38;;;36.58;;
20348;SDS011;10332;50.208;18.988;2023-02-13T03:23:22;82.45;;;36.72;;
20348;SDS011;10332;50.208;18.988;2023-02-13T03:28:45;82.22;;;34.70;;
20348;SDS011;10332;50.208;18.988;2023-02-13T03:31:59;83.05;;;34.80;;
20348;SDS011;10332;50.208;18.988;2023-02-13T03:34:44;84.65;;;35.42;;
20348;SDS011;10332;50.208;18.988;2023-02-13T03:37:49;85.88;;;35.50;;
20348;SDS011;10332;50.208;18.988;2023-02-13T03:40:34;92.97;;;34.20;;
20348;SDS011;10332;50.208;18.988;2023-02-13T03:43:28;91.93;;;34.43;;
20348;SDS011;10332;50.208;18.988;2023-02-13T03:46:08;95.38;;;36.78;;
20348;SDS011;10332;50.208;18.988;2023-02-13T03:48:37;100.18;;;37.78;;
20348;SDS011;10332;50.208;18.988;2023-02-13T03:51:28;88.10;;;36.72;;
20348;SDS011;10332;50.208;18.988;2023-02-13T03:54:20;92.80;;;37.55;;
20348;SDS011;10332;50.208;18.988;2023-02-13T03:57:15;93.25;;;36.83;;
20348;SDS011;10332;50.208;18.988;2023-02-13T04:00:06;101.32;;;36.88;;
20348;SDS011;10332;50.208;18.988;2023-02-13T04:02:49;90.40;;;36.45;;
20348;SDS011;10332;50.208;18.988;2023-02-13T04:05:31;114.97;;;38.20;;
20348;SDS011;10332;50.208;18.988;2023-02-13T04:08:09;97.38;;;37.45;;
20348;SDS011;10332;50.208;18.988;2023-02-13T04:10:39;115.30;;;38.17;;
20348;SDS011;10332;50.208;18.988;2023-02-13T04:13:25;110.72;;;37.10;;
20348;SDS011;10332;50.208;18.988;2023-02-13T04:16:08;99.85;;;35.35;;
20348;SDS011;10332;50.208;18.988;2023-02-13T04:19:06;99.25;;;36.60;;
20348;SDS011;10332;50.208;18.988;2023-02-13T04:21:37;107.70;;;36.95;;
20348;SDS011;10332;50.208;18.988;2023-02-13T04:24:06;111.55;;;38.63;;
20348;SDS011;10332;50.208;18.988;2023-02-13T04:26:36;108.93;;;39.40;;
20348;SDS011;10332;50.208;18.988;2023-02-13T04:29:07;128.82;;;40.83;;
20348;SDS011;10332;50.208;18.988;2023-02-13T04:31:35;121.00;;;49.50;;
20348;SDS011;10332;50.208;18.988;2023-02-13T04:34:03;121.35;;;44.25;;
20348;SDS011;10332;50.208;18.988;2023-02-13T04:36:30;123.65;;;41.53;;
20348;SDS011;10332;50.208;18.988;2023-02-13T04:38:58;98.65;;;36.03;;
20348;SDS011;10332;50.208;18.988;2023-02-13T04:41:25;98.72;;;38.47;;
20348;SDS011;10332;50.208;18.988;2023-02-13T04:43:53;102.32;;;38.15;;
20348;SDS011;10332;50.208;18.988;2023-02-13T04:46:20;91.55;;;39.05;;
20348;SDS011;10332;50.208;18.988;2023-02-13T04:48:48;100.28;;;40.20;;
20348;SDS011;10332;50.208;18.988;2023-02-13T04:51:15;96.43;;;37.83;;
20348;SDS011;10332;50.208;18.988;2023-02-13T04:53:43;101.38;;;38.92;;
20348;SDS011;10332;50.208;18.988;2023-02-13T04:56:10;104.10;;;39.67;;
20348;SDS011;10332;50.208;18.988;2023-02-13T04:58:39;112.43;;;36.55;;
20348;SDS011;10332;50.208;18.988;2023-02-13T05:01:13;98.43;;;35.17;;
20348;SDS011;10332;50.208;18.988;2023-02-13T05:03:42;87.38;;;34.03;;
20348;SDS011;10332;50.208;18.988;2023-02-13T05:06:10;92.88;;;33.72;;
20348;SDS011;10332;50.208;18.988;2023-02-13T05:08:38;97.22;;;34.95;;
20348;SDS011;10332;50.208;18.988;2023-02-13T05:11:06;98.18;;;32.92;;
20348;SDS011;10332;50.208;18.988;2023-02-13T05:13:33;75.55;;;32.25;;
20348;SDS011;10332;50.208;18.988;2023-02-13T05:16:01;114.82;;;34.28;;
20348;SDS011;10332;50.208;18.988;2023-02-13T05:18:29;84.88;;;34.28;;
20348;SDS011;10332;50.208;18.988;2023-02-13T05:20:56;76.75;;;32.35;;
20348;SDS011;10332;50.208;18.988;2023-02-13T05:23:42;97.15;;;33.63;;
20348;SDS011;10332;50.208;18.988;2023-02-13T05:26:09;96.60;;;34.00;;
20348;SDS011;10332;50.208;18.988;2023-02-13T05:28:37;83.55;;;31.67;;
20348;SDS011;10332;50.208;18.988;2023-02-13T05:31:23;97.00;;;30.85;;
20348;SDS011;10332;50.208;18.988;2023-02-13T05:33:51;79.97;;;30.10;;
20348;SDS011;10332;50.208;18.988;2023-02-13T05:36:18;86.18;;;30.67;;
20348;SDS011;10332;50.208;18.988;2023-02-13T05:38:46;80.55;;;30.77;;
20348;SDS011;10332;50.208;18.988;2023-02-13T05:41:13;80.88;;;30.98;;
20348;SDS011;10332;50.208;18.988;2023-02-13T05:43:41;74.18;;;32.55;;
20348;SDS011;10332;50.208;18.988;2023-02-13T05:46:08;76.75;;;30.92;;
20348;SDS011;10332;50.208;18.988;2023-02-13T05:48:36;75.82;;;30.67;;
20348;SDS011;10332;50.208;18.988;2023-02-13T05:51:04;71.70;;;29.25;;
20348;SDS011;10332;50.208;18.988;2023-02-13T05:53:32;72.78;;;30.45;;
20348;SDS011;10332;50.208;18.988;2023-02-13T05:56:01;61.15;;;27.55;;
20348;SDS011;10332;50.208;18.988;2023-02-13T05:58:32;72.35;;;32.95;;
20348;SDS011;10332;50.208;18.988;2023-02-13T06:01:00;76.85;;;33.05;;
20348;SDS011;10332;50.208;18.988;2023-02-13T06:03:29;80.65;;;33.55;;
20348;SDS011;10332;50.208;18.988;2023-02-13T06:05:58;71.40;;;31.00;;
20348;SDS011;10332;50.208;18.988;2023-02-13T06:08:26;71.30;;;31.17;;
20348;SDS011;10332;50.208;18.988;2023-02-13T06:10:54;60.47;;;28.33;;
20348;SDS011;10332;50.208;18.988;2023-02-13T06:13:21;69.25;;;30.23;;
20348;SDS011;10332;50.208;18.988;2023-02-13T06:15:48;79.68;;;33.97;;
20348;SDS011;10332;50.208;18.988;2023-02-13T06:18:16;66.45;;;31.83;;
20348;SDS011;10332;50.208;18.988;2023-02-13T06:20:44;67.90;;;31.20;;
20348;SDS011;10332;50.208;18.988;2023-02-13T06:23:11;71.20;;;32.45;;
20348;SDS011;10332;50.208;18.988;2023-02-13T06:25:40;75.00;;;34.95;;
20348;SDS011;10332;50.208;18.988;2023-02-13T06:28:07;76.55;;;35.38;;
20348;SDS011;10332;50.208;18.988;2023-02-13T06:30:35;83.53;;;39.58;;
20348;SDS011;10332;50.208;18.988;2023-02-13T06:33:02;83.68;;;39.22;;
20348;SDS011;10332;50.208;18.988;2023-02-13T06:35:30;83.25;;;39.95;;
20348;SDS011;10332;50.208;18.988;2023-02-13T06:37:57;76.28;;;36.33;;
20348;SDS011;10332;50.208;18.988;2023-02-13T06:40:26;83.15;;;41.28;;
20348;SDS011;10332;50.208;18.988;2023-02-13T06:42:54;95.25;;;42.38;;
20348;SDS011;10332;50.208;18.988;2023-02-13T06:45:21;86.50;;;41.35;;
20348;SDS011;10332;50.208;18.988;2023-02-13T06:47:48;75.07;;;37.60;;
20348;SDS011;10332;50.208;18.988;2023-02-13T06:50:17;79.32;;;37.65;;
20348;SDS011;10332;50.208;18.988;2023-02-13T06:52:45;71.65;;;35.10;;
20348;SDS011;10332;50.208;18.988;2023-02-13T06:55:15;68.95;;;34.50;;
20348;SDS011;10332;50.208;18.988;2023-02-13T06:57:44;63.75;;;32.38;;
20348;SDS011;10332;50.208;18.988;2023-02-13T07:00:12;57.15;;;27.83;;
20348;SDS011;10332;50.208;18.988;2023-02-13T07:02:43;42.58;;;21.15;;
20348;SDS011;10332;50.208;18.988;2023-02-13T07:05:12;56.22;;;27.40;;
20348;SDS011;10332;50.208;18.988;2023-02-13T07:07:40;55.65;;;28.15;;
20348;SDS011;10332;50.208;18.988;2023-02-13T07:10:10;47.60;;;24.50;;
20348;SDS011;10332;50.208;18.988;2023-02-13T07:12:39;51.22;;;25.25;;
20348;SDS011;10332;50.208;18.988;2023-02-13T07:15:07;51.13;;;28.08;;
20348;SDS011;10332;50.208;18.988;2023-02-13T07:17:35;55.15;;;29.02;;
20348;SDS011;10332;50.208;18.988;2023-02-13T07:20:03;65.10;;;31.70;;
20348;SDS011;10332;50.208;18.988;2023-02-13T07:22:32;64.95;;;32.25;;
20348;SDS011;10332;50.208;18.988;2023-02-13T07:25:00;57.47;;;30.02;;
20348;SDS011;10332;50.208;18.988;2023-02-13T07:27:28;58.92;;;30.75;;
20348;SDS011;10332;50.208;18.988;2023-02-13T07:29:55;57.78;;;30.15;;
20348;SDS011;10332;50.208;18.988;2023-02-13T07:32:23;58.10;;;30.55;;
20348;SDS011;10332;50.208;18.988;2023-02-13T07:34:51;64.90;;;32.03;;
20348;SDS011;10332;50.208;18.988;2023-02-13T07:37:31;55.75;;;28.38;;
20348;SDS011;10332;50.208;18.988;2023-02-13T07:39:58;52.47;;;27.40;;
20348;SDS011;10332;50.208;18.988;2023-02-13T07:42:26;44.58;;;24.13;;
20348;SDS011;10332;50.208;18.988;2023-02-13T07:44:53;92.55;;;48.17;;
20348;SDS011;10332;50.208;18.988;2023-02-13T07:47:21;76.22;;;42.92;;
20348;SDS011;10332;50.208;18.988;2023-02-13T07:49:48;62.38;;;31.90;;
20348;SDS011;10332;50.208;18.988;2023-02-13T07:52:16;53.42;;;29.45;;
20348;SDS011;10332;50.208;18.988;2023-02-13T07:54:43;50.08;;;28.02;;
20348;SDS011;10332;50.208;18.988;2023-02-13T07:57:14;52.92;;;26.08;;
20348;SDS011;10332;50.208;18.988;2023-02-13T07:59:42;58.53;;;30.10;;
20348;SDS011;10332;50.208;18.988;2023-02-13T08:02:11;45.20;;;26.05;;
20348;SDS011;10332;50.208;18.988;2023-02-13T08:04:40;51.03;;;27.30;;
20348;SDS011;10332;50.208;18.988;2023-02-13T08:07:12;45.85;;;25.55;;
20348;SDS011;10332;50.208;18.988;2023-02-13T08:09:44;56.35;;;27.10;;
20348;SDS011;10332;50.208;18.988;2023-02-13T08:12:32;52.67;;;22.45;;
20348;SDS011;10332;50.208;18.988;2023-02-13T08:15:02;57.28;;;26.00;;
20348;SDS011;10332;50.208;18.988;2023-02-13T08:17:31;41.80;;;21.20;;
20348;SDS011;10332;50.208;18.988;2023-02-13T08:19:58;46.50;;;22.65;;
20348;SDS011;10332;50.208;18.988;2023-02-13T08:22:25;62.55;;;23.63;;
20348;SDS011;10332;50.208;18.988;2023-02-13T08:24:53;33.70;;;18.67;;
20348;SDS011;10332;50.208;18.988;2023-02-13T08:27:20;60.60;;;24.48;;
20348;SDS011;10332;50.208;18.988;2023-02-13T08:29:48;31.35;;;17.38;;
20348;SDS011;10332;50.208;18.988;2023-02-13T08:32:17;30.38;;;16.77;;
20348;SDS011;10332;50.208;18.988;2023-02-13T08:34:44;32.25;;;17.50;;
20348;SDS011;10332;50.208;18.988;2023-02-13T08:37:12;46.25;;;22.33;;
20348;SDS011;10332;50.208;18.988;2023-02-13T08:39:40;37.28;;;20.35;;
20348;SDS011;10332;50.208;18.988;2023-02-13T08:42:08;35.15;;;19.77;;
20348;SDS011;10332;50.208;18.988;2023-02-13T08:44:41;32.72;;;18.80;;
20348;SDS011;10332;50.208;18.988;2023-02-13T08:47:09;35.40;;;19.65;;
20348;SDS011;10332;50.208;18.988;2023-02-13T08:49:37;33.72;;;18.58;;
20348;SDS011;10332;50.208;18.988;2023-02-13T08:52:05;34.38;;;19.15;;
20348;SDS011;10332;50.208;18.988;2023-02-13T08:54:33;34.63;;;19.00;;
20348;SDS011;10332;50.208;18.988;2023-02-13T08:57:02;35.47;;;18.88;;
20348;SDS011;10332;50.208;18.988;2023-02-13T08:59:29;35.85;;;20.20;;
20348;SDS011;10332;50.208;18.988;2023-02-13T09:01:57;41.28;;;22.63;;
20348;SDS011;10332;50.208;18.988;2023-02-13T09:04:24;37.83;;;20.48;;
20348;SDS011;10332;50.208;18.988;2023-02-13T09:06:52;38.90;;;20.48;;
20348;SDS011;10332;50.208;18.988;2023-02-13T09:09:20;36.60;;;20.85;;
20348;SDS011;10332;50.208;18.988;2023-02-13T09:11:48;37.75;;;21.38;;
20348;SDS011;10332;50.208;18.988;2023-02-13T09:14:17;35.97;;;20.05;;
20348;SDS011;10332;50.208;18.988;2023-02-13T09:16:44;42.72;;;21.98;;
20348;SDS011;10332;50.208;18.988;2023-02-13T09:19:12;36.80;;;20.65;;
20348;SDS011;10332;50.208;18.988;2023-02-13T09:21:39;35.90;;;21.15;;
20348;SDS011;10332;50.208;18.988;2023-02-13T09:24:07;35.88;;;19.45;;
20348;SDS011;10332;50.208;18.988;2023-02-13T09:26:37;40.15;;;21.98;;
20348;SDS011;10332;50.208;18.988;2023-02-13T09:29:04;40.35;;;20.73;;
20348;SDS011;10332;50.208;18.988;2023-02-13T09:31:32;36.05;;;20.75;;
20348;SDS011;10332;50.208;18.988;2023-02-13T09:34:00;28.55;;;16.48;;
20348;SDS011;10332;50.208;18.988;2023-02-13T09:36:27;28.35;;;15.75;;
20348;SDS011;10332;50.208;18.988;2023-02-13T09:38:55;29.05;;;16.10;;
20348;SDS011;10332;50.208;18.988;2023-02-13T09:49:37;23.67;;;13.40;;
20348;SDS011;10332;50.208;18.988;2023-02-13T09:52:12;23.75;;;13.48;;
20348;SDS011;10332;50.208;18.988;2023-02-13T09:54:40;24.90;;;14.05;;
20348;SDS011;10332;50.208;18.988;2023-02-13T09:57:16;26.30;;;14.52;;
20348;SDS011;10332;50.208;18.988;2023-02-13T10:00:04;27.38;;;14.07;;
20348;SDS011;10332;50.208;18.988;2023-02-13T10:03:10;25.25;;;12.50;;
20348;SDS011;10332;50.208;18.988;2023-02-13T10:08:40;20.77;;;13.13;;
20348;SDS011;10332;50.208;18.988;2023-02-13T10:17:49;20.75;;;12.10;;
20348;SDS011;10332;50.208;18.988;2023-02-13T10:20:41;29.08;;;15.85;;
20348;SDS011;10332;50.208;18.988;2023-02-13T10:23:22;30.25;;;16.83;;
20348;SDS011;10332;50.208;18.988;2023-02-13T10:26:32;27.80;;;16.75;;
20348;SDS011;10332;50.208;18.988;2023-02-13T10:29:14;29.70;;;17.38;;
20348;SDS011;10332;50.208;18.988;2023-02-13T10:32:08;22.30;;;12.98;;
20348;SDS011;10332;50.208;18.988;2023-02-13T10:34:44;26.42;;;15.93;;
20348;SDS011;10332;50.208;18.988;2023-02-13T10:37:15;32.58;;;18.40;;
20348;SDS011;10332;50.208;18.988;2023-02-13T10:39:50;34.72;;;20.63;;
20348;SDS011;10332;50.208;18.988;2023-02-13T10:56:04;37.10;;;21.20;;
20348;SDS011;10332;50.208;18.988;2023-02-13T11:01:56;33.40;;;19.42;;
20348;SDS011;10332;50.208;18.988;2023-02-13T11:04:42;35.15;;;21.23;;
20348;SDS011;10332;50.208;18.988;2023-02-13T11:07:12;37.42;;;23.02;;
20348;SDS011;10332;50.208;18.988;2023-02-13T11:09:46;39.38;;;21.27;;
20348;SDS011;10332;50.208;18.988;2023-02-13T11:12:28;34.08;;;21.02;;
20348;SDS011;10332;50.208;18.988;2023-02-13T11:15:00;41.80;;;23.35;;
20348;SDS011;10332;50.208;18.988;2023-02-13T11:17:33;38.50;;;22.60;;
20348;SDS011;10332;50.208;18.988;2023-02-13T11:20:07;41.90;;;23.60;;
20348;SDS011;10332;50.208;18.988;2023-02-13T11:22:54;41.97;;;23.98;;
20348;SDS011;10332;50.208;18.988;2023-02-13T11:25:37;41.03;;;23.65;;
20348;SDS011;10332;50.208;18.988;2023-02-13T11:28:14;41.75;;;22.42;;
20348;SDS011;10332;50.208;18.988;2023-02-13T11:30:47;36.85;;;21.27;;
20348;SDS011;10332;50.208;18.988;2023-02-13T11:35:43;37.55;;;20.58;;
20348;SDS011;10332;50.208;18.988;2023-02-13T11:38:19;33.03;;;19.15;;
20348;SDS011;10332;50.208;18.988;2023-02-13T11:44:00;42.50;;;24.77;;
20348;SDS011;10332;50.208;18.988;2023-02-13T11:46:45;31.65;;;18.52;;
20348;SDS011;10332;50.208;18.988;2023-02-13T11:49:19;37.42;;;19.10;;
20348;SDS011;10332;50.208;18.988;2023-02-13T11:51:51;31.17;;;17.38;;
20348;SDS011;10332;50.208;18.988;2023-02-13T11:56:53;31.20;;;17.23;;
20348;SDS011;10332;50.208;18.988;2023-02-13T11:59:32;27.40;;;15.70;;
20348;SDS011;10332;50.208;18.988;2023-02-13T12:02:20;26.95;;;16.67;;
20348;SDS011;10332;50.208;18.988;2023-02-13T12:04:54;25.83;;;16.45;;
20348;SDS011;10332;50.208;18.988;2023-02-13T12:07:50;31.60;;;18.50;;
20348;SDS011;10332;50.208;18.988;2023-02-13T12:10:27;27.20;;;16.08;;
20348;SDS011;10332;50.208;18.988;2023-02-13T12:16:05;29.20;;;17.30;;
20348;SDS011;10332;50.208;18.988;2023-02-13T12:19:21;34.80;;;18.88;;
20348;SDS011;10332;50.208;18.988;2023-02-13T12:25:02;25.00;;;14.88;;
20348;SDS011;10332;50.208;18.988;2023-02-13T12:28:11;23.48;;;13.65;;
20348;SDS011;10332;50.208;18.988;2023-02-13T12:48:26;29.67;;;17.50;;
20348;SDS011;10332;50.208;18.988;2023-02-13T12:59:40;36.28;;;21.67;;
20348;SDS011;10332;50.208;18.988;2023-02-13T13:05:03;38.65;;;21.38;;
20348;SDS011;10332;50.208;18.988;2023-02-13T13:18:00;45.17;;;25.50;;
20348;SDS011;10332;50.208;18.988;2023-02-13T13:21:45;42.95;;;23.25;;
20348;SDS011;10332;50.208;18.988;2023-02-13T13:24:34;45.30;;;25.63;;
20348;SDS011;10332;50.208;18.988;2023-02-13T13:27:21;42.30;;;24.67;;
20348;SDS011;10332;50.208;18.988;2023-02-13T13:30:05;39.28;;;23.35;;
20348;SDS011;10332;50.208;18.988;2023-02-13T13:33:02;43.33;;;25.42;;
20348;SDS011;10332;50.208;18.988;2023-02-13T13:35:42;41.97;;;24.30;;
20348;SDS011;10332;50.208;18.988;2023-02-13T13:38:51;40.20;;;23.73;;
20348;SDS011;10332;50.208;18.988;2023-02-13T13:41:41;42.63;;;24.80;;
20348;SDS011;10332;50.208;18.988;2023-02-13T13:44:46;38.95;;;23.08;;
20348;SDS011;10332;50.208;18.988;2023-02-13T13:50:25;44.58;;;25.40;;
20348;SDS011;10332;50.208;18.988;2023-02-13T13:58:32;46.55;;;27.60;;
20348;SDS011;10332;50.208;18.988;2023-02-13T14:01:26;46.10;;;25.75;;
20348;SDS011;10332;50.208;18.988;2023-02-13T14:03:57;40.30;;;22.83;;
20348;SDS011;10332;50.208;18.988;2023-02-13T14:07:13;41.35;;;23.40;;
20348;SDS011;10332;50.208;18.988;2023-02-13T14:09:47;42.17;;;23.65;;
20348;SDS011;10332;50.208;18.988;2023-02-13T14:14:52;69.75;;;29.27;;
20348;SDS011;10332;50.208;18.988;2023-02-13T14:23:12;42.35;;;24.83;;
20348;SDS011;10332;50.208;18.988;2023-02-13T14:31:24;23.83;;;15.32;;
20348;SDS011;10332;50.208;18.988;2023-02-13T14:36:36;19.48;;;10.38;;
20348;SDS011;10332;50.208;18.988;2023-02-13T14:44:22;15.55;;;9.50;;
20348;SDS011;10332;50.208;18.988;2023-02-13T14:47:01;16.88;;;10.02;;
20348;SDS011;10332;50.208;18.988;2023-02-13T14:49:40;16.15;;;9.82;;
20348;SDS011;10332;50.208;18.988;2023-02-13T14:54:58;17.25;;;10.88;;
20348;SDS011;10332;50.208;18.988;2023-02-13T14:57:42;19.58;;;12.32;;
20348;SDS011;10332;50.208;18.988;2023-02-13T15:00:52;22.23;;;12.27;;
20348;SDS011;10332;50.208;18.988;2023-02-13T15:03:46;17.77;;;10.73;;
20348;SDS011;10332;50.208;18.988;2023-02-13T15:08:56;16.58;;;10.38;;
20348;SDS011;10332;50.208;18.988;2023-02-13T15:11:36;15.20;;;10.23;;
20348;SDS011;10332;50.208;18.988;2023-02-13T15:19:53;29.65;;;15.05;;
20348;SDS011;10332;50.208;18.988;2023-02-13T15:22:37;21.05;;;13.13;;
20348;SDS011;10332;50.208;18.988;2023-02-13T15:28:06;19.67;;;12.60;;
20348;SDS011;10332;50.208;18.988;2023-02-13T15:30:58;26.08;;;14.80;;
20348;SDS011;10332;50.208;18.988;2023-02-13T15:33:45;24.50;;;15.50;;
20348;SDS011;10332;50.208;18.988;2023-02-13T15:36:22;25.58;;;14.98;;
20348;SDS011;10332;50.208;18.988;2023-02-13T15:38:58;26.80;;;15.60;;
20348;SDS011;10332;50.208;18.988;2023-02-13T15:41:33;27.35;;;15.30;;
20348;SDS011;10332;50.208;18.988;2023-02-13T15:44:14;17.88;;;10.40;;
20348;SDS011;10332;50.208;18.988;2023-02-13T15:46:48;15.75;;;10.13;;
20348;SDS011;10332;50.208;18.988;2023-02-13T15:49:20;14.70;;;10.20;;
20348;SDS011;10332;50.208;18.988;2023-02-13T15:52:00;16.52;;;9.55;;
20348;SDS011;10332;50.208;18.988;2023-02-13T15:54:46;14.52;;;9.73;;
20348;SDS011;10332;50.208;18.988;2023-02-13T15:57:20;14.02;;;9.57;;
20348;SDS011;10332;50.208;18.988;2023-02-13T15:59:49;16.63;;;10.18;;
20348;SDS011;10332;50.208;18.988;2023-02-13T16:02:21;17.25;;;10.70;;
20348;SDS011;10332;50.208;18.988;2023-02-13T16:04:59;14.55;;;10.18;;
20348;SDS011;10332;50.208;18.988;2023-02-13T16:07:28;21.70;;;14.00;;
20348;SDS011;10332;50.208;18.988;2023-02-13T16:10:15;21.77;;;13.00;;
20348;SDS011;10332;50.208;18.988;2023-02-13T16:12:51;22.40;;;11.98;;
20348;SDS011;10332;50.208;18.988;2023-02-13T16:15:21;19.88;;;10.60;;
20348;SDS011;10332;50.208;18.988;2023-02-13T16:17:55;22.15;;;11.23;;
20348;SDS011;10332;50.208;18.988;2023-02-13T16:20:25;19.17;;;9.07;;
20348;SDS011;10332;50.208;18.988;2023-02-13T16:22:57;16.83;;;9.93;;
20348;SDS011;10332;50.208;18.988;2023-02-13T16:25:39;13.80;;;8.50;;
20348;SDS011;10332;50.208;18.988;2023-02-13T16:28:20;15.13;;;8.82;;
20348;SDS011;10332;50.208;18.988;2023-02-13T16:33:29;18.30;;;11.25;;
20348;SDS011;10332;50.208;18.988;2023-02-13T16:35:59;18.65;;;12.63;;
20348;SDS011;10332;50.208;18.988;2023-02-13T16:38:54;15.38;;;10.75;;
20348;SDS011;10332;50.208;18.988;2023-02-13T16:46:31;17.65;;;10.63;;
20348;SDS011;10332;50.208;18.988;2023-02-13T16:49:20;19.23;;;11.43;;
20348;SDS011;10332;50.208;18.988;2023-02-13T16:52:03;21.92;;;14.20;;
20348;SDS011;10332;50.208;18.988;2023-02-13T16:54:53;24.90;;;17.17;;
20348;SDS011;10332;50.208;18.988;2023-02-13T16:57:27;27.20;;;16.88;;
20348;SDS011;10332;50.208;18.988;2023-02-13T17:00:06;25.77;;;16.50;;
20348;SDS011;10332;50.208;18.988;2023-02-13T17:02:57;29.25;;;18.33;;
20348;SDS011;10332;50.208;18.988;2023-02-13T17:05:27;27.60;;;16.63;;
20348;SDS011;10332;50.208;18.988;2023-02-13T17:07:55;30.38;;;18.27;;
20348;SDS011;10332;50.208;18.988;2023-02-13T17:10:28;26.20;;;17.40;;
20348;SDS011;10332;50.208;18.988;2023-02-13T17:13:16;29.55;;;16.75;;
20348;SDS011;10332;50.208;18.988;2023-02-13T17:15:53;27.70;;;17.17;;
20348;SDS011;10332;50.208;18.988;2023-02-13T17:18:20;28.17;;;16.83;;
20348;SDS011;10332;50.208;18.988;2023-02-13T17:20:48;32.60;;;18.65;;
20348;SDS011;10332;50.208;18.988;2023-02-13T17:23:16;33.22;;;18.98;;
20348;SDS011;10332;50.208;18.988;2023-02-13T17:25:48;37.88;;;20.55;;
20348;SDS011;10332;50.208;18.988;2023-02-13T17:28:21;44.03;;;23.10;;
20348;SDS011;10332;50.208;18.988;2023-02-13T17:30:55;44.50;;;22.08;;
20348;SDS011;10332;50.208;18.988;2023-02-13T17:33:27;39.63;;;21.45;;
20348;SDS011;10332;50.208;18.988;2023-02-13T17:35:59;40.67;;;22.55;;
20348;SDS011;10332;50.208;18.988;2023-02-13T17:38:26;31.63;;;17.63;;
20348;SDS011;10332;50.208;18.988;2023-02-13T17:40:54;30.77;;;18.55;;
20348;SDS011;10332;50.208;18.988;2023-02-13T17:43:22;31.67;;;18.48;;
20348;SDS011;10332;50.208;18.988;2023-02-13T17:45:52;26.08;;;16.27;;
20348;SDS011;10332;50.208;18.988;2023-02-13T17:48:20;34.22;;;19.05;;
20348;SDS011;10332;50.208;18.988;2023-02-13T17:50:48;32.58;;;19.70;;
20348;SDS011;10332;50.208;18.988;2023-02-13T17:53:21;34.15;;;19.48;;